Laprairie — VC9004 — position and weather

sailwx.info

Track history (hours):
 
Tides and Currents Weather Stations Pressure Air Temp Water Temp Dewpoint Dewpoint Depression Visibility Wind Speed Wind Dir Waves Ship Positions

Laprairie

Last reported at 2018-Apr-28 23:20 UTC. Time now 2018-May-25 16:50 UTC.
Position N 45°30' W 073°31'.
Warning: this ship's position is 26 days out of date.

Length 22 m; draft 3 m.

Type: Tug. MMSI: 316005239.

Date/timePositionNaut miles runAvg speedWind from/ knotsBaromVisibWave heightAir tempDewpointWater temp
2018-Apr-28 23:20N 45°30' W 073°31'1 1.6
2018-Apr-28 23:00N 45°30' W 073°31'2 3.6
2018-Apr-28 22:24N 45°28' W 073°30'2 4.3
2018-Apr-28 22:00N 45°26' W 073°30'2 4.4
2018-Apr-28 21:30N 45°24' W 073°33'1 2.0
2018-Apr-28 21:01N 45°24' W 073°34'0 0.5
2018-Apr-28 20:25N 45°24' W 073°34'0 0.0
2018-Apr-28 20:01N 45°24' W 073°34'2 4.4
2018-Apr-28 19:30N 45°24' W 073°37'3 4.9
2018-Apr-28 18:59N 45°25' W 073°41'3 5.4
2018-Apr-28 18:30N 45°24' W 073°44'3 5.6
2018-Apr-28 18:00N 45°23' W 073°48'3 6.0
2018-Apr-28 17:30N 45°21' W 073°51'3 5.9
2018-Apr-28 17:00N 45°20' W 073°55'1 1.4
2018-Apr-28 16:30N 45°19' W 073°55'1 1.3
2018-Apr-28 15:55N 45°18' W 073°56'0 0.3
2018-Apr-28 14:44N 45°18' W 073°56'1 4.0
2018-Apr-28 14:27N 45°17' W 073°57'3 5.5
2018-Apr-28 14:00N 45°15' W 073°59'  
2018-Apr-23 22:16N 45°14' W 074°01'3 8.2
2018-Apr-23 21:55N 45°16' W 073°57'3 5.9
2018-Apr-23 21:26N 45°18' W 073°56'1 1.5
2018-Apr-23 20:53N 45°19' W 073°55'2 6.4
2018-Apr-23 20:30N 45°21' W 073°53'4 8.5
2018-Apr-23 19:59N 45°24' W 073°48'4 8.0
2018-Apr-23 19:30N 45°25' W 073°43'4 6.3
2018-Apr-23 18:56N 45°24' W 073°37'2 5.3
2018-Apr-23 18:28N 45°24' W 073°34'2 4.7
2018-Apr-23 18:00N 45°25' W 073°31'3 6.5
2018-Apr-23 17:31N 45°28' W 073°30'2 3.4
2018-Apr-23 16:58N 45°30' W 073°31'  
Track history (hours):
 
Tides and Currents Weather Stations Pressure Air Temp Water Temp Dewpoint Dewpoint Depression Visibility Wind Speed Wind Dir Waves Ship Positions

Laprairie

Last reported at 2018-Apr-28 23:20 UTC. Time now 2018-May-25 16:50 UTC.
Position N 45°30' W 073°31'.
Warning: this ship's position is 26 days out of date.

Length 22 m; draft 3 m.

Type: Tug. MMSI: 316005239.

Date/timePositionNaut miles runAvg speedWind from/ knotsBaromVisibWave heightAir tempDewpointWater temp
2018-Apr-28 23:20N 45°30' W 073°31'1 1.6
2018-Apr-28 23:00N 45°30' W 073°31'2 3.6
2018-Apr-28 22:24N 45°28' W 073°30'2 4.3
2018-Apr-28 22:00N 45°26' W 073°30'2 4.4
2018-Apr-28 21:30N 45°24' W 073°33'1 2.0
2018-Apr-28 21:01N 45°24' W 073°34'0 0.5
2018-Apr-28 20:25N 45°24' W 073°34'0 0.0
2018-Apr-28 20:01N 45°24' W 073°34'2 4.4
2018-Apr-28 19:30N 45°24' W 073°37'3 4.9
2018-Apr-28 18:59N 45°25' W 073°41'3 5.4
2018-Apr-28 18:30N 45°24' W 073°44'3 5.6
2018-Apr-28 18:00N 45°23' W 073°48'3 6.0
2018-Apr-28 17:30N 45°21' W 073°51'3 5.9
2018-Apr-28 17:00N 45°20' W 073°55'1 1.4
2018-Apr-28 16:30N 45°19' W 073°55'1 1.3
2018-Apr-28 15:55N 45°18' W 073°56'0 0.3
2018-Apr-28 14:44N 45°18' W 073°56'1 4.0
2018-Apr-28 14:27N 45°17' W 073°57'3 5.5
2018-Apr-28 14:00N 45°15' W 073°59'  
2018-Apr-23 22:16N 45°14' W 074°01'3 8.2
2018-Apr-23 21:55N 45°16' W 073°57'3 5.9
2018-Apr-23 21:26N 45°18' W 073°56'1 1.5
2018-Apr-23 20:53N 45°19' W 073°55'2 6.4
2018-Apr-23 20:30N 45°21' W 073°53'4 8.5
2018-Apr-23 19:59N 45°24' W 073°48'4 8.0
2018-Apr-23 19:30N 45°25' W 073°43'4 6.3
2018-Apr-23 18:56N 45°24' W 073°37'2 5.3
2018-Apr-23 18:28N 45°24' W 073°34'2 4.7
2018-Apr-23 18:00N 45°25' W 073°31'3 6.5
2018-Apr-23 17:31N 45°28' W 073°30'2 3.4
2018-Apr-23 16:58N 45°30' W 073°31'  

Dump ship's entire track history